Time;durP1;ratioP1;P1;durP2;ratioP2;P2;SDS_P1;SDS_P2;PMS_P1;PMS_P2;Temp;Humidity;BMP_temperature;BMP_pressure;BME280_temperature;BME280_humidity;BME280_pressure;Samples;Min_cycle;Max_cycle;Signal;HPM_P1;HPM_P2
2023/09/02 00:01:07;;;;;;;2.53;1.40;;;17.50;90.70;;;19.24;61.10;97787.09;5012853;28;20042;-50
2023/09/02 00:03:35;;;;;;;3.15;1.75;;;17.50;90.40;;;19.23;60.99;97779.22;5012719;28;20042;-49
2023/09/02 00:06:02;;;;;;;2.33;1.70;;;17.50;90.50;;;19.20;61.15;97785.88;5012767;28;20037;-50
2023/09/02 00:08:30;;;;;;;2.75;1.40;;;17.40;90.60;;;19.15;61.22;97793.75;5012562;28;20052;-53
2023/09/02 00:10:58;;;;;;;1.75;1.40;;;17.40;91.60;;;19.14;61.37;97785.91;5012827;28;20049;-50
2023/09/02 00:13:25;;;;;;;2.30;1.90;;;17.40;91.50;;;19.11;61.38;97783.63;5012139;28;20049;-49
2023/09/02 00:15:53;;;;;;;2.83;1.50;;;17.40;91.70;;;19.10;61.34;97785.50;5012748;28;20030;-52
2023/09/02 00:18:20;;;;;;;2.92;1.40;;;17.30;91.40;;;19.05;61.56;97790.69;5011433;28;20049;-54
2023/09/02 00:20:48;;;;;;;1.20;1.05;;;17.20;91.90;;;19.03;61.59;97785.50;5012455;28;20045;-53
2023/09/02 00:23:16;;;;;;;3.15;1.60;;;17.20;91.90;;;19.00;61.52;97783.25;5012270;28;20054;-49
2023/09/02 00:25:44;;;;;;;4.78;1.88;;;17.20;92.20;;;19.00;61.41;97785.09;5012361;28;20048;-53
2023/09/02 00:28:12;;;;;;;2.00;1.50;;;17.20;92.00;;;18.98;61.40;97781.78;5013230;28;20050;-54
2023/09/02 00:30:40;;;;;;;2.10;1.60;;;17.10;92.20;;;18.94;61.68;97786.78;5025005;28;20054;-52
2023/09/02 00:33:07;;;;;;;2.38;1.63;;;17.10;92.50;;;18.92;61.94;97790.72;5012029;28;20046;-54
2023/09/02 00:35:35;;;;;;;2.30;1.50;;;17.10;93.20;;;18.88;61.96;97782.22;5018978;28;20061;-53
2023/09/02 00:38:03;;;;;;;2.70;2.05;;;17.10;93.50;;;18.87;62.08;97792.19;5027946;28;20066;-51
2023/09/02 00:40:31;;;;;;;2.33;1.40;;;17.00;93.60;;;18.86;62.10;97790.53;5010915;28;20046;-52
2023/09/02 00:43:01;;;;;;;2.35;1.58;;;17.10;93.70;;;18.87;62.00;97794.06;5002581;28;20046;-50
2023/09/02 00:45:29;;;;;;;3.03;1.40;;;17.00;93.30;;;18.83;61.99;97788.25;5010677;28;20046;-51
2023/09/02 00:47:59;;;;;;;2.50;1.45;;;17.00;93.60;;;18.84;62.14;97795.31;4995041;28;20041;-54
2023/09/02 00:50:27;;;;;;;2.58;1.60;;;17.00;93.40;;;18.85;62.12;97796.13;5011713;28;20395;-51
2023/09/02 00:52:55;;;;;;;1.92;1.27;;;17.10;93.20;;;18.86;61.88;97793.25;4994542;28;20046;-50
2023/09/02 00:55:23;;;;;;;1.90;1.40;;;17.20;92.70;;;18.85;61.88;97791.56;5018883;28;20519;-52
2023/09/02 00:57:50;;;;;;;2.47;1.67;;;17.10;92.90;;;18.82;62.21;97781.19;5002575;28;20057;-54
2023/09/02 01:00:20;;;;;;;3.28;1.60;;;17.00;93.60;;;18.81;62.30;97784.94;5010244;28;20131;-49
2023/09/02 01:02:49;;;;;;;2.92;1.70;;;17.00;93.80;;;18.82;62.23;97785.75;5010212;28;20502;-53
2023/09/02 01:05:19;;;;;;;3.55;1.60;;;17.00;94.20;;;18.83;62.49;97780.16;5002572;28;20050;-51
2023/09/02 01:07:47;;;;;;;2.20;1.50;;;17.10;93.90;;;18.81;62.53;97787.63;4994198;28;20048;-50
2023/09/02 01:10:14;;;;;;;1.75;1.40;;;17.10;94.20;;;18.84;62.82;97786.38;5010768;28;20046;-54
2023/09/02 01:12:43;;;;;;;1.73;1.40;;;17.20;93.80;;;18.86;62.91;97784.28;5011405;28;20037;-52
2023/09/02 01:15:10;;;;;;;1.70;1.40;;;17.20;93.50;;;18.88;62.79;97783.06;4994584;28;20046;-52
2023/09/02 01:17:38;;;;;;;4.35;1.88;;;17.20;93.50;;;18.88;62.70;97784.91;5018304;28;20049;-53
2023/09/02 01:20:08;;;;;;;2.28;1.70;;;17.20;93.50;;;18.89;62.68;97790.09;4994081;28;20057;-52
2023/09/02 01:23:05;;;;;;;3.00;1.92;;;17.20;93.80;;;18.89;62.87;97783.88;4993171;28;20053;-52
2023/09/02 01:26:00;;;;;;;2.20;1.30;;;17.20;93.70;;;18.91;62.43;97789.06;5010308;28;20046;-52
2023/09/02 01:28:34;;;;;;;2.35;1.48;;;17.20;93.50;;;18.92;62.51;97786.19;5011394;28;20045;-52
2023/09/02 01:31:04;;;;;;;;;;;17.10;93.50;;;18.87;62.42;97781.41;5002077;28;20425;-52
2023/09/02 01:33:32;;;;;;;2.45;1.60;;;17.10;93.60;;;18.87;62.40;97786.78;4993360;28;19928;-52
2023/09/02 01:36:01;;;;;;;3.13;1.50;;;17.00;94.10;;;18.86;62.24;97789.69;5002580;28;20049;-49
2023/09/02 01:38:32;;;;;;;1.80;1.38;;;17.00;94.10;;;18.85;62.41;97790.75;5017803;28;20050;-54
2023/09/02 01:41:04;;;;;;;2.30;1.40;;;17.00;93.60;;;18.82;62.46;97791.97;4993965;28;20057;-53
2023/09/02 01:43:34;;;;;;;3.95;2.00;;;17.00;93.70;;;18.79;62.27;97794.25;4993234;28;20056;-54
2023/09/02 01:46:02;;;;;;;2.25;1.27;;;17.00;94.20;;;18.78;62.55;97790.72;5002102;28;20042;-53
2023/09/02 01:48:30;;;;;;;1.95;1.40;;;17.00;93.80;;;18.80;62.48;97799.44;5011008;28;20447;-53
2023/09/02 01:50:59;;;;;;;3.63;1.80;;;17.10;93.60;;;18.78;62.17;97798.81;5010880;28;20038;-54
2023/09/02 01:53:28;;;;;;;2.67;1.50;;;17.10;93.00;;;18.73;62.70;97797.78;5009675;28;20052;-53
2023/09/02 01:55:57;;;;;;;3.60;1.70;;;16.90;93.60;;;18.71;62.40;97800.69;5009854;28;20053;-51
2023/09/02 01:58:25;;;;;;;1.60;1.25;;;16.90;93.90;;;18.70;62.61;97801.72;5026187;28;20058;-54
2023/09/02 02:00:53;;;;;;;2.42;1.50;;;16.90;94.90;;;18.68;62.74;97798.41;5009549;28;20472;-53
2023/09/02 02:03:30;;;;;;;2.60;1.77;;;16.90;94.20;;;18.66;62.59;97805.88;5026132;28;20056;-49
2023/09/02 02:05:59;;;;;;;2.00;1.40;;;16.90;94.30;;;18.66;62.52;97809.41;5002717;28;20042;-50
2023/09/02 02:08:52;;;;;;;3.35;1.70;;;16.90;94.20;;;18.62;62.63;97808.16;5010542;28;20052;-51
2023/09/02 02:11:21;;;;;;;2.42;1.40;;;16.90;94.10;;;18.63;62.47;97806.28;5008291;28;20041;-51
2023/09/02 02:13:51;;;;;;;2.10;1.30;;;16.90;93.80;;;18.61;62.32;97809.22;5014696;28;20509;-52
2023/09/02 02:16:22;;;;;;;1.85;1.35;;;16.90;93.60;;;18.59;62.44;97802.34;5014202;28;20501;-52
2023/09/02 02:18:49;;;;;;;1.80;1.20;;;16.80;93.50;;;18.56;62.51;97809.00;5014948;28;20042;-52
2023/09/02 02:21:17;;;;;;;2.40;1.45;;;16.80;94.20;;;18.55;62.25;97812.72;5013030;28;20411;-48
2023/09/02 02:23:45;;;;;;;3.15;1.40;;;16.70;93.40;;;18.50;62.41;97807.97;4996771;28;20057;-51
2023/09/02 02:26:13;;;;;;;1.67;1.52;;;16.70;93.60;;;18.48;62.54;97812.72;5030358;28;20080;-54
2023/09/02 02:28:42;;;;;;;4.30;2.20;;;16.70;93.80;;;18.45;62.49;97812.31;5029897;28;20457;-53
2023/09/02 02:31:10;;;;;;;1.85;1.42;;;16.60;94.10;;;18.41;62.54;97811.06;5021387;28;20053;-52
2023/09/02 02:33:38;;;;;;;2.42;1.65;;;16.60;94.00;;;18.40;62.52;97809.44;5013629;28;20060;-48
2023/09/02 02:36:09;;;;;;;4.07;1.52;;;16.60;93.80;;;18.35;62.69;97812.72;5013312;28;20049;-53
2023/09/02 02:38:37;;;;;;;2.80;1.45;;;16.50;94.30;;;18.35;62.72;97814.59;5013194;28;20050;-53
2023/09/02 02:41:05;;;;;;;2.50;1.38;;;16.50;94.70;;;18.30;62.90;97815.22;5029459;28;20053;-52
2023/09/02 02:43:33;;;;;;;1.58;1.38;;;16.50;95.20;;;18.27;63.00;97811.06;5014118;28;20050;-50
2023/09/02 02:46:00;;;;;;;2.00;1.50;;;16.40;95.60;;;18.27;63.06;97813.75;5013369;28;20608;-52
2023/09/02 02:48:30;;;;;;;2.10;1.40;;;16.50;95.70;;;18.29;63.19;97821.66;5029810;28;20529;-54
2023/09/02 02:50:58;;;;;;;1.65;1.50;;;16.50;95.30;;;18.29;63.28;97819.78;5029222;28;20425;-53
2023/09/02 02:53:26;;;;;;;2.88;1.90;;;16.60;95.30;;;18.30;63.48;97816.06;5014247;28;20103;-51
2023/09/02 02:56:02;;;;;;;2.67;1.73;;;16.60;95.60;;;18.33;63.41;97809.41;4997080;28;20406;-52
2023/09/02 02:58:32;;;;;;;5.20;1.92;;;16.60;95.50;;;18.35;63.42;97803.81;5029672;28;20054;-53
2023/09/02 03:01:05;;;;;;;3.85;1.70;;;16.60;95.40;;;18.34;63.48;97804.84;5006493;28;20387;-54
2023/09/02 03:03:35;;;;;;;2.13;1.77;;;16.60;95.50;;;18.35;63.53;97806.50;5029045;28;20073;-53
2023/09/02 03:06:04;;;;;;;3.35;1.83;;;16.60;95.50;;;18.34;63.48;97805.69;5012592;28;20312;-52
2023/09/02 03:08:33;;;;;;;6.63;2.90;;;16.60;95.70;;;18.34;63.47;97811.09;5028728;28;20056;-53
2023/09/02 03:11:07;;;;;;;3.00;1.98;;;16.60;95.70;;;18.36;63.54;97816.25;5012517;28;20037;-50
2023/09/02 03:13:37;;;;;;;3.45;2.45;;;16.60;95.80;;;18.34;63.46;97824.56;5020526;28;20494;-51
2023/09/02 03:16:18;;;;;;;1.92;1.42;;;16.60;95.90;;;18.32;63.69;97818.56;5015137;28;20049;-48
2023/09/02 03:18:47;;;;;;;2.40;1.70;;;16.60;96.80;;;18.34;63.69;97821.88;5020515;28;20062;-51
2023/09/02 03:21:15;;;;;;;2.50;1.60;;;16.60;96.60;;;18.35;63.71;97814.59;5028424;28;20049;-51
2023/09/02 03:23:43;;;;;;;2.08;1.42;;;16.60;96.30;;;18.36;63.65;97824.31;5028213;28;20080;-50
2023/09/02 03:26:15;;;;;;;2.45;1.55;;;16.60;96.30;;;18.34;63.74;97832.66;5013229;28;20042;-52
2023/09/02 03:28:45;;;;;;;1.73;1.55;;;16.60;96.30;;;18.33;63.62;97830.97;4996282;28;20057;-49
2023/09/02 03:31:12;;;;;;;4.88;1.60;;;16.60;96.20;;;18.31;63.75;97833.03;5011507;28;20430;-51
2023/09/02 03:33:43;;;;;;;3.03;2.45;;;16.60;96.50;;;18.30;63.74;97839.50;5027848;28;20057;-52
2023/09/02 03:36:20;;;;;;;3.03;1.95;;;16.50;96.70;;;18.27;63.88;97835.31;5020691;28;20046;-49
2023/09/02 03:38:47;;;;;;;3.42;2.28;;;16.50;97.20;;;18.26;63.82;97836.38;5019978;28;20057;-53
2023/09/02 03:41:20;;;;;;;2.97;1.38;;;16.50;96.80;;;18.23;63.73;97839.47;4995930;28;20068;-48
2023/09/02 03:43:47;;;;;;;3.65;2.00;;;16.40;96.70;;;18.21;63.79;97838.84;5019716;28;20441;-50
2023/09/02 03:46:16;;;;;;;2.72;1.58;;;16.40;97.10;;;18.21;63.91;97838.84;5004334;28;20065;-52
2023/09/02 03:48:48;;;;;;;2.40;1.60;;;16.50;97.30;;;18.21;64.06;97836.16;5028348;28;20413;-52
2023/09/02 03:51:17;;;;;;;1.92;1.40;;;16.50;97.40;;;18.22;64.17;97842.34;5028420;28;20038;-54
2023/09/02 03:53:50;;;;;;;3.67;1.88;;;16.50;97.50;;;18.22;64.13;97836.97;5028266;28;20428;-51
2023/09/02 03:56:18;;;;;;;3.47;1.80;;;16.50;97.50;;;18.23;64.08;97835.94;5019921;28;20137;-52
2023/09/02 03:58:46;;;;;;;4.00;1.50;;;16.50;97.30;;;18.24;64.07;97837.59;5019869;28;20049;-52
2023/09/02 04:01:15;;;;;;;2.50;1.60;;;16.50;97.20;;;18.22;64.10;97835.13;5028238;28;20061;-53
2023/09/02 04:03:43;;;;;;;2.40;1.98;;;16.50;97.30;;;18.19;64.04;97843.59;5012402;28;20046;-52
2023/09/02 04:06:13;;;;;;;1.85;1.35;;;16.40;97.40;;;18.16;64.06;97844.00;5028104;28;20498;-49
2023/09/02 04:08:40;;;;;;;4.97;1.80;;;16.40;97.50;;;18.13;64.21;97843.59;5019810;28;20061;-49
2023/09/02 04:11:08;;;;;;;2.65;1.80;;;16.30;98.00;;;18.12;64.12;97839.25;5005107;28;20034;-49
2023/09/02 04:13:37;;;;;;;3.00;2.05;;;16.30;98.10;;;18.07;64.10;97840.69;5028563;28;20525;-48
2023/09/02 04:16:10;;;;;;;2.08;1.70;;;16.20;98.30;;;18.04;64.19;97840.25;5028345;28;20054;-52
2023/09/02 04:18:38;;;;;;;3.03;1.98;;;16.20;98.50;;;18.03;64.14;97839.44;5027799;28;20045;-49
2023/09/02 04:21:09;;;;;;;3.83;1.80;;;16.20;98.50;;;18.00;64.21;97839.84;5020220;28;20052;-52
2023/09/02 04:23:41;;;;;;;2.90;1.60;;;16.20;98.40;;;18.01;64.28;97844.19;5019509;28;20133;-51
2023/09/02 04:26:12;;;;;;;4.63;2.13;;;16.20;98.60;;;18.01;64.39;97843.34;5027516;28;20057;-48
2023/09/02 04:28:39;;;;;;;3.17;1.92;;;16.20;98.50;;;18.03;64.37;97843.97;5018163;28;20050;-50
2023/09/02 04:31:07;;;;;;;3.40;1.80;;;16.30;98.30;;;18.04;64.26;97842.94;5005706;28;20042;-52
2023/09/02 04:33:36;;;;;;;2.85;1.60;;;16.30;97.60;;;18.04;64.07;97848.34;5017423;28;20046;-52
2023/09/02 04:36:05;;;;;;;2.13;1.58;;;16.30;97.10;;;18.03;63.99;97842.13;5027349;28;20042;-51
2023/09/02 04:38:37;;;;;;;3.15;2.17;;;16.30;96.90;;;18.02;64.12;97855.81;5010899;28;20065;-53
2023/09/02 04:41:08;;;;;;;3.22;2.20;;;16.30;97.00;;;18.01;64.10;97852.28;5026913;28;20041;-54
2023/09/02 04:43:38;;;;;;;2.35;1.63;;;16.30;96.70;;;18.01;63.93;97857.66;5026892;28;20057;-54
2023/09/02 04:46:07;;;;;;;2.55;1.88;;;16.30;96.40;;;18.00;63.99;97860.56;5002664;28;20049;-53
2023/09/02 04:48:38;;;;;;;3.00;1.90;;;16.30;96.30;;;17.98;63.94;97863.44;5027353;28;20046;-55
2023/09/02 04:51:08;;;;;;;2.67;1.80;;;16.20;96.20;;;17.96;63.74;97859.31;5026196;28;20049;-54
2023/09/02 04:53:37;;;;;;;3.22;2.33;;;16.20;96.20;;;17.94;63.86;97858.69;5018359;28;20415;-53
2023/09/02 04:56:06;;;;;;;3.25;2.25;;;16.20;96.00;;;17.92;63.69;97863.44;5018955;28;20042;-52
2023/09/02 04:58:36;;;;;;;3.22;1.77;;;16.20;96.00;;;17.91;63.72;97865.28;5018763;28;20053;-52
2023/09/02 05:01:11;;;;;;;2.40;1.77;;;16.20;96.20;;;17.90;63.71;97869.84;5018524;28;20061;-51
2023/09/02 05:03:42;;;;;;;3.60;2.55;;;16.10;96.50;;;17.88;63.95;97876.47;4994458;28;20053;-53
2023/09/02 05:06:10;;;;;;;3.58;2.00;;;16.10;97.30;;;17.87;64.06;97882.88;5018587;28;20120;-50
2023/09/02 05:08:41;;;;;;;4.18;2.10;;;16.10;97.30;;;17.87;64.18;97881.03;5026719;28;20057;-54
2023/09/02 05:11:09;;;;;;;2.72;2.10;;;16.10;97.00;;;17.87;64.19;97877.50;5026859;28;20041;-53
2023/09/02 05:13:37;;;;;;;3.65;2.45;;;16.10;97.20;;;17.87;64.20;97878.34;5009507;28;20053;-51
2023/09/02 05:16:05;;;;;;;4.03;2.70;;;16.10;97.30;;;17.87;64.14;97878.34;5018408;28;20080;-54
2023/09/02 05:18:32;;;;;;;2.33;2.00;;;16.20;97.20;;;17.89;64.20;97873.59;5011298;28;20117;-50
2023/09/02 05:21:01;;;;;;;2.70;1.80;;;16.20;97.00;;;17.90;64.17;97872.53;5011125;28;20045;-54
2023/09/02 05:23:29;;;;;;;2.30;2.00;;;16.20;97.00;;;17.92;64.24;97871.53;5009524;28;20053;-53
2023/09/02 05:25:57;;;;;;;2.28;1.80;;;16.20;96.80;;;17.93;64.19;97875.88;5009617;28;20046;-54
2023/09/02 05:28:26;;;;;;;4.75;2.20;;;16.20;96.90;;;17.95;64.25;97884.56;5011828;28;20053;-56
2023/09/02 05:30:56;;;;;;;2.97;2.00;;;16.30;97.30;;;17.95;64.41;97876.50;5026631;28;20046;-53
2023/09/02 05:33:23;;;;;;;3.80;2.00;;;16.30;97.90;;;17.99;64.48;97875.03;5010506;28;20520;-54
2023/09/02 05:35:52;;;;;;;3.20;2.25;;;16.30;97.90;;;18.00;64.69;97876.72;5011481;28;20049;-50
2023/09/02 05:38:19;;;;;;;4.05;2.50;;;16.40;97.80;;;18.04;64.70;97880.66;5011086;28;20030;-54
2023/09/02 05:40:47;;;;;;;3.53;2.40;;;16.40;98.00;;;18.07;64.85;97877.59;5010966;28;20049;-50
2023/09/02 05:43:15;;;;;;;3.60;2.33;;;16.50;98.20;;;18.12;65.06;97882.34;5009996;28;20397;-50
2023/09/02 05:45:43;;;;;;;3.45;2.30;;;16.50;99.00;;;18.14;65.28;97882.97;5025999;28;20045;-53
2023/09/02 05:48:11;;;;;;;4.50;2.80;;;16.60;99.30;;;18.18;65.37;97884.22;5011086;28;20072;-54
2023/09/02 05:50:38;;;;;;;3.47;2.25;;;16.60;99.30;;;18.22;65.50;97882.78;5010324;28;20049;-55
2023/09/02 05:53:06;;;;;;;3.45;2.25;;;16.70;99.30;;;18.22;65.57;97886.31;5010478;28;20052;-54
2023/09/02 05:55:34;;;;;;;3.03;2.15;;;16.70;98.80;;;18.23;65.63;97881.75;5011101;28;20057;-49
2023/09/02 05:58:02;;;;;;;3.50;2.08;;;16.80;98.40;;;18.24;65.67;97880.69;5009752;28;20046;-54
2023/09/02 06:00:29;;;;;;;3.63;2.15;;;16.90;98.10;;;18.24;65.93;97891.47;5010822;28;20045;-53
2023/09/02 06:02:57;;;;;;;3.28;2.70;;;16.90;97.60;;;18.27;65.98;97891.91;5010569;28;20516;-55
2023/09/02 06:05:24;;;;;;;4.07;2.67;;;17.00;97.20;;;18.30;65.87;97888.81;5011033;28;20057;-54
2023/09/02 06:07:55;;;;;;;4.97;2.97;;;17.10;97.10;;;18.31;66.14;97889.63;5010806;28;20053;-53
2023/09/02 06:10:22;;;;;;;4.07;2.42;;;17.10;97.00;;;18.32;66.11;97893.16;5010629;28;20042;-55
2023/09/02 06:12:50;;;;;;;3.60;2.28;;;17.10;96.80;;;18.33;66.25;97898.34;5010510;28;20526;-54
2023/09/02 06:15:18;;;;;;;4.03;2.47;;;17.20;96.90;;;18.40;66.28;97903.78;5010994;28;20050;-56
2023/09/02 06:17:45;;;;;;;3.55;2.40;;;17.20;97.10;;;18.44;66.13;97896.94;5010969;28;20057;-55
2023/09/02 06:20:16;;;;;;;3.70;2.58;;;17.30;97.10;;;18.48;66.33;97895.47;5010582;28;20057;-55
2023/09/02 06:22:43;;;;;;;3.80;2.65;;;17.30;96.90;;;18.53;66.17;97895.66;5011038;28;20529;-56
2023/09/02 06:25:11;;;;;;;4.07;2.45;;;17.40;97.00;;;18.60;66.16;97896.50;5010618;28;20045;-53
2023/09/02 06:27:39;;;;;;;4.57;2.03;;;17.40;96.90;;;18.67;66.14;97899.22;5010664;28;20046;-54
2023/09/02 06:30:07;;;;;;;3.38;2.40;;;17.40;96.60;;;18.70;66.11;97893.41;5010449;28;20506;-53
2023/09/02 06:32:35;;;;;;;3.10;2.30;;;17.50;96.70;;;18.73;66.21;97893.00;5021972;28;20045;-52
2023/09/02 06:35:05;;;;;;;3.47;2.53;;;17.50;96.60;;;18.77;66.08;97893.44;5010297;28;20046;-55
2023/09/02 06:37:32;;;;;;;5.63;3.00;;;17.60;96.60;;;18.81;66.12;97889.31;5009054;28;20457;-52
2023/09/02 06:40:00;;;;;;;2.88;2.10;;;17.60;96.80;;;18.85;66.31;97890.53;5026135;28;20057;-52
2023/09/02 06:42:28;;;;;;;4.55;2.97;;;17.60;97.10;;;18.91;66.03;97897.78;5010522;28;20052;-54
2023/09/02 06:44:56;;;;;;;3.72;2.60;;;17.70;97.20;;;18.98;66.18;97900.47;5010633;28;20086;-51
2023/09/02 06:47:23;;;;;;;3.42;2.00;;;17.80;97.00;;;19.04;66.14;97907.75;5002831;28;20033;-49
2023/09/02 06:49:51;;;;;;;3.40;2.15;;;17.80;96.70;;;19.10;65.92;97917.72;5010560;28;20076;-51
2023/09/02 06:52:19;;;;;;;3.33;2.50;;;17.80;96.40;;;19.14;65.99;97912.72;5010430;28;20086;-52
2023/09/02 06:54:50;;;;;;;3.88;2.78;;;17.90;96.30;;;19.19;65.90;97910.22;5010379;28;20042;-52
2023/09/02 06:57:17;;;;;;;5.45;2.50;;;18.00;96.60;;;19.21;66.01;97918.94;5009163;28;20532;-50
2023/09/02 06:59:45;;;;;;;5.93;3.58;;;18.00;96.60;;;19.26;66.00;97911.88;5027838;28;20046;-47
2023/09/02 07:02:12;;;;;;;5.35;2.88;;;18.00;96.30;;;19.32;66.03;97912.06;5011568;28;20498;-50
2023/09/02 07:04:40;;;;;;;3.33;2.30;;;18.10;96.40;;;19.36;65.82;97914.13;5028000;28;20068;-51
2023/09/02 07:07:08;;;;;;;3.45;2.30;;;18.20;96.20;;;19.41;65.89;97913.50;5013672;28;20371;-49
2023/09/02 07:09:35;;;;;;;2.90;2.05;;;18.20;96.50;;;19.47;66.04;97916.19;5012950;28;20042;-52
2023/09/02 07:12:03;;;;;;;4.80;2.13;;;18.20;96.30;;;19.53;66.01;97919.09;5021333;28;20061;-47
2023/09/02 07:14:31;;;;;;;2.90;2.38;;;18.30;96.20;;;19.57;66.25;97926.53;5014318;28;20065;-52
2023/09/02 07:16:59;;;;;;;2.70;2.03;;;18.40;96.50;;;19.62;66.13;97917.81;5014514;28;20497;-52
2023/09/02 07:19:27;;;;;;;4.72;2.30;;;18.40;96.10;;;19.66;66.22;97921.75;5014729;28;20516;-50
2023/09/02 07:21:56;;;;;;;4.65;2.28;;;18.50;96.70;;;19.74;66.21;97928.81;5014338;28;20516;-51
2023/09/02 07:24:25;;;;;;;5.25;2.40;;;18.60;96.10;;;19.79;66.01;97924.44;5013527;28;20050;-48
2023/09/02 07:26:52;;;;;;;4.10;2.30;;;18.60;95.60;;;19.85;65.78;97926.28;5013690;28;20046;-53
2023/09/02 07:29:20;;;;;;;4.38;2.30;;;18.70;95.40;;;19.93;65.92;97927.91;5013621;28;20516;-53
2023/09/02 07:31:48;;;;;;;2.70;1.70;;;18.80;94.70;;;19.98;65.47;97927.25;5012349;28;20041;-53
2023/09/02 07:34:15;;;;;;;6.25;1.90;;;18.90;93.70;;;20.04;65.23;97932.63;5013560;28;20057;-50
2023/09/02 07:36:43;;;;;;;3.33;1.85;;;18.90;93.10;;;20.11;64.72;97929.91;5013742;28;20046;-48
2023/09/02 07:39:12;;;;;;;4.63;1.75;;;19.00;92.70;;;20.20;65.22;97935.88;5013256;28;20037;-51
2023/09/02 07:41:40;;;;;;;2.97;2.28;;;19.10;92.50;;;20.29;64.77;97941.88;5013269;28;20042;-53
2023/09/02 07:44:09;;;;;;;3.65;2.30;;;19.20;92.40;;;20.34;64.99;97934.78;5013222;28;20045;-53
2023/09/02 07:46:36;;;;;;;4.07;1.83;;;19.20;92.20;;;20.42;65.08;97945.34;5013188;28;20053;-52
2023/09/02 07:49:04;;;;;;;4.40;2.05;;;19.30;92.50;;;20.46;64.49;97938.44;5013323;28;20041;-53
2023/09/02 07:51:31;;;;;;;3.35;2.35;;;19.40;92.00;;;20.52;64.50;97944.84;5012933;28;20046;-54
2023/09/02 07:53:59;;;;;;;3.55;2.30;;;19.40;91.70;;;20.58;64.72;97949.38;5012792;28;20038;-52
2023/09/02 07:56:27;;;;;;;6.18;2.55;;;19.50;91.70;;;20.65;64.35;97946.69;5013159;28;20042;-51
2023/09/02 07:58:54;;;;;;;4.93;2.00;;;19.50;91.50;;;20.71;64.56;97945.81;5013265;28;20501;-51
2023/09/02 08:01:22;;;;;;;3.80;2.70;;;19.60;90.90;;;20.77;64.01;97955.75;5012675;28;20049;-50
2023/09/02 08:03:49;;;;;;;2.38;1.85;;;19.70;90.90;;;20.85;63.93;97960.06;5012979;28;20042;-52
2023/09/02 08:06:17;;;;;;;3.58;2.55;;;19.70;90.00;;;20.91;63.61;97953.78;5013057;28;20050;-50
2023/09/02 08:08:45;;;;;;;4.53;2.35;;;19.80;89.40;;;20.96;63.82;97956.66;5011981;28;20050;-51
2023/09/02 08:11:17;;;;;;;3.63;2.40;;;19.90;89.50;;;21.02;63.24;97954.94;5012751;28;20057;-53
2023/09/02 08:13:45;;;;;;;3.92;2.13;;;19.90;89.80;;;21.09;63.29;97949.47;5012611;28;20426;-49
2023/09/02 08:16:12;;;;;;;3.28;2.30;;;20.00;88.60;;;21.12;62.71;97954.44;5012657;28;20049;-48
2023/09/02 08:18:40;;;;;;;3.50;1.90;;;20.10;88.00;;;21.16;62.41;97959.19;5012970;28;20038;-49
2023/09/02 08:21:09;;;;;;;2.70;1.88;;;20.10;87.30;;;21.18;62.32;97957.09;5011318;28;20421;-51
2023/09/02 08:23:38;;;;;;;2.53;1.83;;;20.10;86.80;;;21.21;62.42;97955.84;5012485;28;20042;-49
2023/09/02 08:26:15;;;;;;;5.32;2.42;;;20.10;87.10;;;21.26;62.53;97960.56;5012537;28;20046;-53
2023/09/02 08:28:44;;;;;;;4.40;2.15;;;20.20;87.20;;;21.30;62.59;97964.47;5012442;28;20045;-48
2023/09/02 08:31:18;;;;;;;5.82;2.45;;;20.20;87.50;;;21.32;62.50;97954.25;5012098;28;20046;-48
2023/09/02 08:33:46;;;;;;;3.20;2.05;;;20.20;87.50;;;;;;5012181;28;20037;-48
2023/09/02 08:36:17;;;;;;;4.53;2.33;;;20.30;87.20;;;21.42;62.25;97946.44;5012360;28;20041;-51
2023/09/02 08:38:44;;;;;;;3.90;1.88;;;20.30;87.00;;;21.46;61.91;97949.56;5012029;28;20048;-52
2023/09/02 08:41:33;;;;;;;4.70;2.60;;;20.30;86.50;;;21.51;61.67;97953.25;5011910;28;20053;-49
2023/09/02 08:44:04;;;;;;;2.63;1.80;;;20.40;87.20;;;21.55;61.53;97956.34;5011094;28;20053;-53
2023/09/02 08:46:34;;;;;;;2.50;1.90;;;20.40;85.50;;;21.58;61.87;97955.94;5011904;28;20049;-51
2023/09/02 08:49:01;;;;;;;2.67;2.03;;;20.40;85.80;;;21.63;61.79;97958.75;5012090;28;20046;-49
2023/09/02 08:51:29;;;;;;;4.53;2.40;;;20.50;85.80;;;21.66;61.21;97963.75;5011945;28;20046;-50
2023/09/02 08:53:58;;;;;;;2.75;2.25;;;20.50;84.40;;;21.70;61.05;97964.94;5010919;28;20045;-46
2023/09/02 08:56:26;;;;;;;5.07;2.60;;;20.60;84.80;;;21.74;61.33;97971.56;5010856;28;20046;-51
2023/09/02 08:58:55;;;;;;;5.90;2.60;;;20.60;84.70;;;21.78;60.86;97972.78;5024893;28;20424;-49
2023/09/02 09:01:23;;;;;;;2.83;1.77;;;20.70;84.50;;;21.85;60.66;97972.72;5011856;28;20046;-49
2023/09/02 09:03:55;;;;;;;3.00;2.10;;;20.70;84.10;;;21.88;60.22;97972.25;5011783;28;20061;-50
2023/09/02 09:06:24;;;;;;;3.22;2.22;;;20.80;83.10;;;21.97;60.39;97967.38;5011760;28;20057;-49
2023/09/02 09:08:54;;;;;;;4.47;1.77;;;20.90;83.40;;;22.03;60.37;97971.88;5011161;28;20064;-48
2023/09/02 09:11:22;;;;;;;4.75;2.45;;;20.90;82.90;;;22.09;60.21;97973.69;5011612;28;20034;-49
2023/09/02 09:13:53;;;;;;;4.25;2.15;;;21.00;82.60;;;22.13;60.02;97972.16;5011554;28;20046;-49
2023/09/02 09:16:25;;;;;;;2.63;1.75;;;21.00;82.10;;;22.19;59.59;97981.28;5010583;28;20614;-53
2023/09/02 09:18:53;;;;;;;2.85;1.75;;;21.10;81.20;;;22.23;59.42;97979.75;5011292;28;20054;-46
2023/09/02 09:21:21;;;;;;;2.92;1.65;;;21.10;81.30;;;22.29;59.26;97987.00;5011570;28;20418;-50
2023/09/02 09:23:49;;;;;;;4.15;2.22;;;21.20;81.20;;;22.34;58.93;97980.91;5011527;28;20413;-50
2023/09/02 09:26:18;;;;;;;2.53;1.70;;;21.20;80.30;;;22.36;59.18;97993.19;5011547;28;20517;-49
2023/09/02 09:28:56;;;;;;;3.22;2.08;;;21.20;80.80;;;22.45;58.90;97984.72;5011628;28;20041;-46
2023/09/02 09:31:25;;;;;;;3.85;1.85;;;21.30;79.80;;;22.50;58.97;97982.97;5010962;28;20486;-53
2023/09/02 09:33:58;;;;;;;3.30;2.00;;;21.40;80.00;;;22.54;58.85;97986.06;5011304;28;20381;-52
2023/09/02 09:36:29;;;;;;;3.47;1.90;;;21.40;80.30;;;22.60;58.80;97982.44;5011475;28;20041;-50
2023/09/02 09:39:02;;;;;;;3.05;1.80;;;21.50;80.40;;;22.66;58.81;97981.50;5011338;28;20053;-47
2023/09/02 09:41:30;;;;;;;2.92;2.15;;;21.60;80.30;;;22.71;58.64;97980.81;5011138;28;20053;-46
2023/09/02 09:44:12;;;;;;;2.95;2.00;;;21.70;80.00;;;22.73;58.40;97973.28;5010886;28;20049;-49
2023/09/02 09:46:53;;;;;;;2.63;1.88;;;21.60;78.70;;;22.78;58.13;97976.13;5011642;28;20056;-58
2023/09/02 09:49:28;;;;;;;2.58;1.85;;;21.70;77.90;;;22.83;57.87;97973.53;5011203;28;20053;-58
2023/09/02 09:52:01;;;;;;;3.03;1.88;;;21.80;77.30;;;22.88;57.34;97983.72;5010785;28;20049;-58
2023/09/02 09:54:51;;;;;;;4.63;2.50;;;21.80;77.00;;;22.89;57.81;97977.22;5010801;28;20046;-58
2023/09/02 09:57:38;;;;;;;2.83;1.88;;;21.90;76.70;;;22.98;57.42;97981.25;5011167;28;20042;-58
2023/09/02 10:00:06;;;;;;;2.38;1.65;;;21.90;76.40;;;23.05;56.29;97989.31;5011109;28;20046;-58
2023/09/02 10:02:34;;;;;;;3.05;2.58;;;22.00;75.50;;;23.07;56.06;97982.59;5001178;28;20053;-58
2023/09/02 10:05:02;;;;;;;2.70;2.00;;;22.00;74.80;;;23.13;55.65;97980.84;5023811;28;20052;-59
2023/09/02 10:07:33;;;;;;;4.25;2.20;;;22.00;74.30;;;23.15;55.98;97976.81;5011141;28;20489;-59
2023/09/02 10:10:04;;;;;;;4.00;2.30;;;22.00;74.60;;;23.22;56.94;97975.88;5023994;28;20049;-59
2023/09/02 10:12:35;;;;;;;6.25;3.38;;;22.20;76.50;;;23.26;57.18;97982.50;5025239;28;20052;-59
2023/09/02 10:15:07;;;;;;;3.25;2.13;;;22.20;77.10;;;23.32;57.08;97979.69;5010161;28;20042;-59
2023/09/02 10:17:36;;;;;;;3.65;2.55;;;22.30;77.30;;;23.43;57.13;97982.63;5010231;28;20435;-59
2023/09/02 10:20:05;;;;;;;3.95;2.15;;;22.40;77.00;;;23.51;56.67;97982.28;5010072;28;20038;-59
2023/09/02 10:22:38;;;;;;;3.85;2.70;;;22.50;76.50;;;23.57;56.52;97981.31;5009757;28;20050;-59
2023/09/02 10:25:18;;;;;;;;;;;22.60;75.90;;;23.64;57.15;97981.22;5009085;28;20424;-59
2023/09/02 10:27:59;;;;;;;3.53;2.15;;;22.60;74.40;;;23.73;56.13;97980.63;5008919;28;19928;-59
2023/09/02 10:30:51;;;;;;;4.18;2.10;;;22.60;75.10;;;23.76;56.20;97982.84;4993678;28;20068;-59